Time;durP1;ratioP1;P1;durP2;ratioP2;P2;SDS_P1;SDS_P2;PMS_P1;PMS_P2;Temp;Humidity;BMP_temperature;BMP_pressure;BME280_temperature;BME280_humidity;BME280_pressure;Samples;Min_cycle;Max_cycle;Signal;HPM_P1;HPM_P2
2022/03/12 00:02:16;;;;;;;12.10;7.20;;;;;;;;;;5035652;28;20037;-67
2022/03/12 00:04:44;;;;;;;12.27;6.90;;;;;;;;;;5038726;28;20107;-67
2022/03/12 00:07:10;;;;;;;9.88;6.70;;;;;;;;;;5037494;28;20401;-67
2022/03/12 00:09:36;;;;;;;15.57;7.93;;;;;;;;;;5037413;28;20032;-67
2022/03/12 00:12:03;;;;;;;14.20;6.78;;;;;;;;;;5034038;28;20029;-67
2022/03/12 00:14:30;;;;;;;11.13;6.78;;;;;;;;;;5034544;28;20029;-67
2022/03/12 00:16:55;;;;;;;13.48;7.10;;;;;;;;;;5032638;28;20440;-67
2022/03/12 00:19:21;;;;;;;11.52;6.53;;;;;;;;;;5036923;28;20116;-68
2022/03/12 00:21:48;;;;;;;13.25;6.97;;;;;;;;;;5035357;28;20489;-67
2022/03/12 00:24:15;;;;;;;11.88;6.88;;;;;;;;;;5036837;28;20105;-67
2022/03/12 00:26:43;;;;;;;11.52;6.50;;;;;;;;;;5033816;28;20048;-68
2022/03/12 00:29:14;;;;;;;10.48;6.40;;;;;;;;;;5031210;28;20029;-67
2022/03/12 00:31:42;;;;;;;12.07;6.68;;;;;;;;;;5036033;28;20041;-67
2022/03/12 00:34:08;;;;;;;10.70;6.18;;;;;;;;;;5036414;28;20037;-67
2022/03/12 00:36:34;;;;;;;7.38;5.93;;;;;;;;;;5037985;28;20033;-67
2022/03/12 00:39:00;;;;;;;12.65;6.68;;;;;;;;;;5041910;28;20474;-67
2022/03/12 00:41:26;;;;;;;9.13;5.90;;;;;;;;;;5038012;28;20123;-67
2022/03/12 00:43:52;;;;;;;10.18;6.22;;;;;;;;;;5037743;28;20491;-66
2022/03/12 00:46:20;;;;;;;9.10;6.28;;;;;;;;;;5036251;28;20033;-67
2022/03/12 00:48:46;;;;;;;9.65;6.32;;;;;;;;;;5040458;28;20087;-67
2022/03/12 00:51:12;;;;;;;9.23;6.10;;;;;;;;;;5040703;28;20037;-66
2022/03/12 00:53:40;;;;;;;10.75;6.10;;;;;;;;;;5035495;28;20056;-67
2022/03/12 00:56:07;;;;;;;8.25;6.15;;;;;;;;;;5033155;28;20038;-67
2022/03/12 00:58:37;;;;;;;10.48;6.72;;;;;;;;;;5030325;28;20025;-67
2022/03/12 01:01:04;;;;;;;13.25;6.05;;;;;;;;;;5041316;28;20033;-67
2022/03/12 01:03:30;;;;;;;10.40;6.20;;;;;;;;;;5036880;28;20032;-67
2022/03/12 01:05:59;;;;;;;8.77;5.90;;;;;;;;;;5031937;28;20029;-67
2022/03/12 01:08:27;;;;;;;10.52;6.40;;;;;;;;;;5032614;28;20017;-67
2022/03/12 01:10:56;;;;;;;9.10;5.85;;;;;;;;;;5041488;28;20359;-67
2022/03/12 01:13:22;;;;;;;10.65;6.25;;;;;;;;;;5042631;28;20432;-68
2022/03/12 01:15:49;;;;;;;13.55;5.93;;;;;;;;;;5034730;28;20474;-67
2022/03/12 01:18:18;;;;;;;15.63;5.97;;;;;;;;;;5033529;28;20032;-67
2022/03/12 01:20:44;;;;;;;8.50;5.70;;;;;;;;;;5036488;28;20030;-67
2022/03/12 01:23:17;;;;;;;9.75;5.70;;;;;;;;;;5030488;28;20022;-67
2022/03/12 01:25:43;;;;;;;;;;;;;;;;;;5033980;28;20081;-66
2022/03/12 01:28:10;;;;;;;8.02;5.80;;;;;;;;;;5036469;28;19967;-67
2022/03/12 01:30:38;;;;;;;11.93;6.07;;;;;;;;;;5034200;28;20411;-66
2022/03/12 01:33:04;;;;;;;6.47;5.07;;;;;;;;;;5034734;28;20112;-67
2022/03/12 01:35:31;;;;;;;6.80;5.43;;;;;;;;;;5033136;28;20104;-68
2022/03/12 01:37:57;;;;;;;17.77;6.28;;;;;;;;;;5036634;28;20112;-66
2022/03/12 01:40:22;;;;;;;9.65;5.93;;;;;;;;;;5039241;28;20116;-67
2022/03/12 01:42:49;;;;;;;8.93;5.82;;;;;;;;;;5035860;28;20108;-70
2022/03/12 01:45:24;;;;;;;9.45;6.25;;;;;;;;;;5033447;28;20061;-68
2022/03/12 01:47:53;;;;;;;12.90;5.53;;;;;;;;;;5031848;28;20120;-68
2022/03/12 01:50:19;;;;;;;8.13;5.70;;;;;;;;;;5031438;28;20086;-68
2022/03/12 01:52:45;;;;;;;13.07;5.95;;;;;;;;;;5037744;28;20112;-69
2022/03/12 01:55:11;;;;;;;9.40;5.40;;;;;;;;;;5036417;28;20113;-70
2022/03/12 01:57:37;;;;;;;5.85;5.20;;;;;;;;;;5032179;28;20055;-67
2022/03/12 02:00:04;;;;;;;8.90;5.63;;;;;;;;;;5034170;28;20025;-69
2022/03/12 02:02:34;;;;;;;9.00;6.25;;;;;;;;;;5035729;28;20029;-67
2022/03/12 02:05:01;;;;;;;11.48;6.22;;;;;;;;;;5033416;28;20028;-68
2022/03/12 02:07:29;;;;;;;10.45;6.53;;;;;;;;;;5035235;28;20627;-68
2022/03/12 02:09:55;;;;;;;9.02;6.07;;;;;;;;;;5033253;28;20035;-68
2022/03/12 02:12:21;;;;;;;8.57;5.85;;;;;;;;;;5039543;28;20041;-68
2022/03/12 02:14:47;;;;;;;8.13;5.68;;;;;;;;;;5035463;28;20056;-68
2022/03/12 02:17:12;;;;;;;9.23;5.95;;;;;;;;;;5046109;28;20033;-69
2022/03/12 02:19:40;;;;;;;9.00;5.70;;;;;;;;;;5036136;28;20127;-67
2022/03/12 02:22:14;;;;;;;10.13;5.32;;;;;;;;;;5045572;28;20029;-68
2022/03/12 02:24:40;;;;;;;8.98;5.55;;;;;;;;;;5039298;28;20441;-66
2022/03/12 02:27:10;;;;;;;9.90;5.82;;;;;;;;;;5040378;28;20032;-68
2022/03/12 02:29:37;;;;;;;7.50;6.10;;;;;;;;;;5036793;28;20523;-68
2022/03/12 02:32:06;;;;;;;6.90;5.85;;;;;;;;;;5037770;28;20045;-67
2022/03/12 02:34:38;;;;;;;11.13;6.50;;;;;;;;;;5035255;28;20039;-67
2022/03/12 02:37:04;;;;;;;10.02;5.55;;;;;;;;;;5036996;28;20025;-67
2022/03/12 02:39:31;;;;;;;7.00;5.47;;;;;;;;;;5040713;28;20068;-68
2022/03/12 02:42:03;;;;;;;6.53;5.60;;;;;;;;;;5042623;28;20030;-68
2022/03/12 02:44:29;;;;;;;6.57;5.30;;;;;;;;;;5040230;28;20168;-68
2022/03/12 02:47:14;;;;;;;12.07;6.03;;;;;;;;;;5038713;28;20486;-68
2022/03/12 02:49:58;;;;;;;8.55;5.65;;;;;;;;;;5033294;28;20026;-67
2022/03/12 02:52:27;;;;;;;7.97;5.60;;;;;;;;;;5044675;28;20043;-67
2022/03/12 02:54:57;;;;;;;13.98;5.82;;;;;;;;;;5040070;28;20039;-68
2022/03/12 02:57:24;;;;;;;9.73;5.70;;;;;;;;;;5038172;28;20028;-67
2022/03/12 02:59:53;;;;;;;10.05;5.50;;;;;;;;;;5041780;28;20025;-67
2022/03/12 03:02:31;;;;;;;10.32;5.90;;;;;;;;;;5039297;28;20090;-67
2022/03/12 03:04:58;;;;;;;15.13;5.90;;;;;;;;;;5040280;28;20124;-68
2022/03/12 03:07:24;;;;;;;7.18;5.78;;;;;;;;;;5038150;28;20084;-68
2022/03/12 03:09:50;;;;;;;6.70;5.72;;;;;;;;;;5035651;28;20482;-67
2022/03/12 03:12:22;;;;;;;6.78;5.40;;;;;;;;;;5036541;28;20037;-68
2022/03/12 03:14:49;;;;;;;6.18;5.53;;;;;;;;;;5040895;28;20029;-69
2022/03/12 03:17:15;;;;;;;10.60;5.50;;;;;;;;;;5037130;28;20104;-68
2022/03/12 03:19:41;;;;;;;9.82;5.68;;;;;;;;;;5034943;28;20040;-67
2022/03/12 03:22:08;;;;;;;8.20;5.75;;;;;;;;;;5039092;28;20048;-68
2022/03/12 03:24:34;;;;;;;7.97;5.65;;;;;;;;;;5035072;28;20060;-66
2022/03/12 03:27:01;;;;;;;7.88;5.40;;;;;;;;;;5038066;28;20049;-67
2022/03/12 03:29:30;;;;;;;7.72;5.60;;;;;;;;;;5037401;28;20040;-67
2022/03/12 03:31:57;;;;;;;8.23;6.18;;;;;;;;;;5039278;28;20028;-70
2022/03/12 03:34:24;;;;;;;12.05;5.93;;;;;;;;;;5048671;28;20028;-67
2022/03/12 03:36:51;;;;;;;7.65;5.38;;;;;;;;;;5038166;28;20562;-68
2022/03/12 03:39:17;;;;;;;9.70;5.97;;;;;;;;;;5037126;28;20034;-68
2022/03/12 03:41:43;;;;;;;9.13;5.88;;;;;;;;;;5035422;28;20061;-68
2022/03/12 03:44:10;;;;;;;10.25;6.30;;;;;;;;;;5040713;28;20029;-68
2022/03/12 03:46:36;;;;;;;14.63;5.75;;;;;;;;;;5035979;28;20021;-68
2022/03/12 03:49:04;;;;;;;9.32;5.57;;;;;;;;;;5044966;28;20032;-67
2022/03/12 03:51:30;;;;;;;11.32;5.68;;;;;;;;;;5035655;28;20116;-68
2022/03/12 03:53:56;;;;;;;6.97;5.38;;;;;;;;;;5037536;28;20147;-67
2022/03/12 03:56:22;;;;;;;7.68;5.82;;;;;;;;;;5043424;28;20037;-68
2022/03/12 03:58:48;;;;;;;10.85;5.82;;;;;;;;;;5040350;28;20375;-68
2022/03/12 04:01:17;;;;;;;8.43;5.90;;;;;;;;;;5043551;28;20037;-68
2022/03/12 04:03:51;;;;;;;11.23;6.40;;;;;;;;;;5032448;28;20116;-68
2022/03/12 04:06:22;;;;;;;10.63;6.35;;;;;;;;;;5036784;28;20032;-69
2022/03/12 04:08:49;;;;;;;10.82;6.75;;;;;;;;;;5036440;28;20064;-68
2022/03/12 04:11:20;;;;;;;8.63;5.68;;;;;;;;;;5041642;28;20116;-68
2022/03/12 04:14:00;;;;;;;12.82;6.15;;;;;;;;;;5038925;28;20695;-67
2022/03/12 04:16:28;;;;;;;9.38;5.75;;;;;;;;;;5034710;28;20122;-69
2022/03/12 04:18:55;;;;;;;16.45;5.97;;;;;;;;;;5038518;28;20032;-68
2022/03/12 04:21:21;;;;;;;17.27;6.40;;;;;;;;;;5032444;28;20083;-68
2022/03/12 04:23:47;;;;;;;7.55;6.13;;;;;;;;;;5036212;28;20025;-68
2022/03/12 04:26:13;;;;;;;8.27;5.80;;;;;;;;;;5036411;28;20053;-68
2022/03/12 04:28:40;;;;;;;11.07;6.20;;;;;;;;;;5040614;28;20117;-68
2022/03/12 04:31:07;;;;;;;6.25;5.65;;;;;;;;;;5034600;28;20402;-68
2022/03/12 04:33:34;;;;;;;10.52;5.82;;;;;;;;;;5036672;28;20099;-68
2022/03/12 04:36:01;;;;;;;12.32;7.05;;;;;;;;;;5037245;28;20041;-67
2022/03/12 04:38:27;;;;;;;10.32;5.70;;;;;;;;;;5042857;28;20025;-68
2022/03/12 04:40:55;;;;;;;10.45;5.68;;;;;;;;;;5041268;28;20691;-68
2022/03/12 04:43:21;;;;;;;9.70;5.43;;;;;;;;;;5040196;28;20028;-69
2022/03/12 04:45:49;;;;;;;11.82;6.10;;;;;;;;;;5040563;28;20063;-68
2022/03/12 04:48:19;;;;;;;10.80;6.35;;;;;;;;;;5037451;28;20789;-68
2022/03/12 04:50:45;;;;;;;6.13;5.43;;;;;;;;;;5035976;28;20029;-68
2022/03/12 04:53:11;;;;;;;15.07;5.47;;;;;;;;;;5032094;28;20049;-69
2022/03/12 04:55:38;;;;;;;17.45;6.07;;;;;;;;;;5036405;28;20084;-68
2022/03/12 04:58:05;;;;;;;9.15;6.00;;;;;;;;;;5034726;28;20017;-68
2022/03/12 05:00:33;;;;;;;11.38;5.75;;;;;;;;;;5038012;28;20090;-69
2022/03/12 05:03:10;;;;;;;10.20;5.68;;;;;;;;;;5038447;28;20031;-68
2022/03/12 05:05:40;;;;;;;8.82;6.25;;;;;;;;;;5040092;28;20024;-68
2022/03/12 05:08:09;;;;;;;8.90;6.35;;;;;;;;;;5034915;28;20108;-67
2022/03/12 05:10:34;;;;;;;12.10;7.03;;;;;;;;;;5040190;28;20032;-68
2022/03/12 05:13:00;;;;;;;7.50;5.88;;;;;;;;;;5037266;28;20036;-69
2022/03/12 05:15:34;;;;;;;10.18;6.28;;;;;;;;;;5036636;28;20029;-70
2022/03/12 05:18:01;;;;;;;8.85;6.32;;;;;;;;;;5038576;28;20073;-69
2022/03/12 05:20:27;;;;;;;12.32;6.20;;;;;;;;;;5032065;28;20040;-68
2022/03/12 05:22:53;;;;;;;10.60;5.93;;;;;;;;;;5031853;28;25356;-68
2022/03/12 05:25:20;;;;;;;9.27;6.13;;;;;;;;;;5036800;28;20103;-69
2022/03/12 05:27:47;;;;;;;9.00;6.25;;;;;;;;;;5036442;28;20025;-69
2022/03/12 05:30:13;;;;;;;7.28;6.43;;;;;;;;;;5037926;28;20776;-68
2022/03/12 05:32:39;;;;;;;12.57;7.00;;;;;;;;;;5041694;28;20044;-69
2022/03/12 05:35:06;;;;;;;12.13;6.15;;;;;;;;;;5040302;28;20029;-68
2022/03/12 05:37:33;;;;;;;11.90;6.35;;;;;;;;;;5040169;28;20056;-69
2022/03/12 05:39:58;;;;;;;9.25;6.00;;;;;;;;;;5038150;28;20478;-69
2022/03/12 05:42:25;;;;;;;8.48;5.85;;;;;;;;;;5034226;28;20029;-69
2022/03/12 05:44:54;;;;;;;12.18;6.25;;;;;;;;;;5031762;28;20063;-69
2022/03/12 05:47:23;;;;;;;10.23;5.75;;;;;;;;;;5036113;28;20033;-69
2022/03/12 05:49:49;;;;;;;8.18;5.53;;;;;;;;;;5040741;28;20030;-68
2022/03/12 05:52:18;;;;;;;12.45;5.70;;;;;;;;;;5043020;28;20037;-69
2022/03/12 05:54:45;;;;;;;11.05;5.43;;;;;;;;;;5040924;28;20429;-68
2022/03/12 05:57:11;;;;;;;8.80;5.47;;;;;;;;;;5040666;28;20033;-68
2022/03/12 05:59:37;;;;;;;9.45;6.13;;;;;;;;;;5043572;28;20032;-69
2022/03/12 06:02:03;;;;;;;10.15;5.60;;;;;;;;;;5040229;28;20036;-69
2022/03/12 06:04:29;;;;;;;12.50;5.43;;;;;;;;;;5040948;28;20107;-69
2022/03/12 06:06:55;;;;;;;10.25;6.15;;;;;;;;;;5043315;28;20033;-69
2022/03/12 06:09:22;;;;;;;12.70;5.82;;;;;;;;;;5043789;28;20110;-68
2022/03/12 06:11:53;;;;;;;10.55;5.78;;;;;;;;;;5033152;28;20035;-69
2022/03/12 06:14:19;;;;;;;6.13;4.88;;;;;;;;;;5041718;28;20041;-69
2022/03/12 06:16:48;;;;;;;9.25;5.78;;;;;;;;;;5041454;28;20029;-69
2022/03/12 06:19:16;;;;;;;9.38;5.78;;;;;;;;;;5038612;28;20127;-68
2022/03/12 06:21:42;;;;;;;6.68;5.18;;;;;;;;;;5036386;28;20082;-69
2022/03/12 06:24:08;;;;;;;7.63;5.50;;;;;;;;;;5043482;28;20109;-69
2022/03/12 06:26:36;;;;;;;6.18;5.53;;;;;;;;;;5043325;28;20124;-67
2022/03/12 06:29:04;;;;;;;9.85;6.28;;;;;;;;;;5043637;28;20413;-68
2022/03/12 06:31:33;;;;;;;6.75;5.43;;;;;;;;;;5040806;28;20504;-68
2022/03/12 06:33:59;;;;;;;10.63;5.95;;;;;;;;;;5043200;28;20744;-68
2022/03/12 06:36:25;;;;;;;9.48;5.65;;;;;;;;;;5040736;28;20037;-68
2022/03/12 06:38:50;;;;;;;8.98;6.30;;;;;;;;;;5042187;28;20122;-68
2022/03/12 06:41:20;;;;;;;8.55;6.03;;;;;;;;;;5037182;28;20116;-68
2022/03/12 06:43:47;;;;;;;14.10;5.90;;;;;;;;;;5040176;28;20120;-68
2022/03/12 06:46:18;;;;;;;14.82;7.22;;;;;;;;;;5042729;28;20087;-68
2022/03/12 06:48:44;;;;;;;8.02;5.80;;;;;;;;;;5040004;28;20116;-70
2022/03/12 06:51:10;;;;;;;6.53;5.47;;;;;;;;;;5037504;28;20140;-68
2022/03/12 06:53:37;;;;;;;10.98;5.97;;;;;;;;;;5040658;28;20445;-68
2022/03/12 06:56:04;;;;;;;10.35;6.07;;;;;;;;;;5038531;28;20026;-68
2022/03/12 06:58:30;;;;;;;9.57;6.35;;;;;;;;;;5041190;28;20033;-69
2022/03/12 07:00:56;;;;;;;11.07;5.55;;;;;;;;;;5038058;28;20029;-68
2022/03/12 07:03:23;;;;;;;11.27;5.85;;;;;;;;;;5039424;28;20478;-69
2022/03/12 07:05:48;;;;;;;10.35;5.80;;;;;;;;;;5039215;28;20033;-69
2022/03/12 07:08:14;;;;;;;11.60;6.20;;;;;;;;;;5038008;28;20033;-69
2022/03/12 07:10:40;;;;;;;10.57;6.18;;;;;;;;;;5040492;28;20121;-69
2022/03/12 07:13:06;;;;;;;13.40;6.10;;;;;;;;;;5044722;28;20107;-67
2022/03/12 07:15:32;;;;;;;9.77;6.55;;;;;;;;;;5036488;28;20033;-68
2022/03/12 07:17:57;;;;;;;7.50;6.50;;;;;;;;;;5034217;28;20022;-67
2022/03/12 07:20:23;;;;;;;10.10;6.53;;;;;;;;;;5042663;28;20021;-67
2022/03/12 07:22:49;;;;;;;10.63;6.63;;;;;;;;;;5040672;28;20029;-67
2022/03/12 07:25:16;;;;;;;7.70;6.35;;;;;;;;;;5039031;28;20049;-67
2022/03/12 07:27:42;;;;;;;9.40;6.20;;;;;;;;;;5040427;28;20036;-67
2022/03/12 07:30:10;;;;;;;9.85;6.88;;;;;;;;;;5037428;28;20034;-69
2022/03/12 07:32:38;;;;;;;7.57;6.28;;;;;;;;;;5037475;28;20057;-67
2022/03/12 07:35:05;;;;;;;11.70;6.20;;;;;;;;;;5065286;28;20086;-69
2022/03/12 07:37:30;;;;;;;8.65;6.28;;;;;;;;;;5036013;28;20045;-67
2022/03/12 07:39:56;;;;;;;10.05;6.90;;;;;;;;;;5036121;28;20394;-68
2022/03/12 07:42:22;;;;;;;7.97;6.05;;;;;;;;;;5037072;28;20053;-68
2022/03/12 07:44:49;;;;;;;9.95;6.53;;;;;;;;;;5039361;28;20033;-67
2022/03/12 07:47:15;;;;;;;11.75;6.82;;;;;;;;;;5038569;28;20056;-69
2022/03/12 07:49:41;;;;;;;11.35;6.38;;;;;;;;;;5040803;28;20029;-68
2022/03/12 07:52:07;;;;;;;8.13;6.07;;;;;;;;;;5038216;28;20033;-68
2022/03/12 07:54:33;;;;;;;11.98;6.20;;;;;;;;;;5038753;28;20123;-68
2022/03/12 07:56:59;;;;;;;8.57;6.60;;;;;;;;;;5037160;28;20033;-68
2022/03/12 07:59:27;;;;;;;10.88;6.38;;;;;;;;;;5034477;28;20029;-68
2022/03/12 08:01:53;;;;;;;6.45;5.43;;;;;;;;;;5039253;28;20127;-67
2022/03/12 08:04:19;;;;;;;15.07;6.45;;;;;;;;;;5041676;28;20025;-67
2022/03/12 08:06:45;;;;;;;10.32;6.38;;;;;;;;;;5034293;28;20029;-68
2022/03/12 08:09:11;;;;;;;12.05;5.88;;;;;;;;;;5035985;28;20029;-68
2022/03/12 08:11:36;;;;;;;9.10;6.07;;;;;;;;;;5032289;28;20371;-67
2022/03/12 08:14:08;;;;;;;10.85;6.57;;;;;;;;;;5036821;28;20029;-67
2022/03/12 08:16:37;;;;;;;8.25;5.60;;;;;;;;;;5035058;28;20052;-67
2022/03/12 08:19:07;;;;;;;13.43;6.40;;;;;;;;;;5043569;28;20037;-67
2022/03/12 08:21:34;;;;;;;11.02;5.95;;;;;;;;;;5037473;28;20029;-68
2022/03/12 08:24:03;;;;;;;10.77;6.03;;;;;;;;;;5037886;28;20029;-68
2022/03/12 08:26:30;;;;;;;18.00;6.35;;;;;;;;;;5030986;28;20100;-67
2022/03/12 08:28:56;;;;;;;9.02;6.10;;;;;;;;;;5039363;28;20501;-67
2022/03/12 08:31:22;;;;;;;8.40;6.15;;;;;;;;;;5038736;28;20029;-66
2022/03/12 08:33:48;;;;;;;9.18;5.68;;;;;;;;;;5033512;28;20041;-66
2022/03/12 08:36:15;;;;;;;12.35;5.80;;;;;;;;;;5043654;28;20086;-67
2022/03/12 08:38:41;;;;;;;9.18;5.75;;;;;;;;;;5032894;28;20107;-66
2022/03/12 08:41:09;;;;;;;16.33;6.93;;;;;;;;;;5034238;28;20033;-67
2022/03/12 08:43:36;;;;;;;8.20;5.43;;;;;;;;;;5035321;28;20057;-68
2022/03/12 08:46:03;;;;;;;11.38;6.13;;;;;;;;;;5037838;28;20071;-67
2022/03/12 08:48:30;;;;;;;15.13;6.15;;;;;;;;;;5035816;28;20072;-67
2022/03/12 08:50:55;;;;;;;8.48;5.88;;;;;;;;;;5033979;28;20068;-67
2022/03/12 08:53:21;;;;;;;12.57;6.20;;;;;;;;;;5033093;28;20055;-68
2022/03/12 08:55:48;;;;;;;10.75;6.45;;;;;;;;;;5035144;28;20075;-67
2022/03/12 08:58:14;;;;;;;9.82;6.72;;;;;;;;;;5041671;28;20501;-67
2022/03/12 09:00:42;;;;;;;9.75;5.80;;;;;;;;;;5038478;28;20044;-67
2022/03/12 09:03:09;;;;;;;11.10;6.65;;;;;;;;;;5034492;28;20029;-67
2022/03/12 09:05:35;;;;;;;10.52;6.32;;;;;;;;;;5034139;28;20030;-68
2022/03/12 09:08:01;;;;;;;12.10;6.70;;;;;;;;;;5029555;28;20021;-67
2022/03/12 09:10:28;;;;;;;12.73;6.05;;;;;;;;;;5044401;28;20386;-67
2022/03/12 09:12:53;;;;;;;11.93;6.20;;;;;;;;;;5038632;28;20033;-71
2022/03/12 09:15:22;;;;;;;8.48;6.15;;;;;;;;;;5034707;28;20033;-67
2022/03/12 09:17:48;;;;;;;10.35;6.30;;;;;;;;;;5031406;28;20488;-67
2022/03/12 09:20:14;;;;;;;7.13;6.15;;;;;;;;;;5029678;28;20163;-67
2022/03/12 09:22:40;;;;;;;10.18;6.05;;;;;;;;;;5039877;28;20029;-67
2022/03/12 09:25:09;;;;;;;16.15;6.72;;;;;;;;;;5037181;28;20080;-67
2022/03/12 09:27:35;;;;;;;9.32;5.78;;;;;;;;;;5039688;28;20028;-67
2022/03/12 09:30:01;;;;;;;12.93;5.95;;;;;;;;;;5038694;28;20029;-67
2022/03/12 09:32:28;;;;;;;9.55;5.75;;;;;;;;;;5036387;28;20437;-67
2022/03/12 09:34:54;;;;;;;8.20;5.30;;;;;;;;;;5039232;28;20040;-68
2022/03/12 09:37:20;;;;;;;8.65;5.78;;;;;;;;;;5037260;28;20521;-69
2022/03/12 09:39:47;;;;;;;11.10;5.90;;;;;;;;;;5034174;28;20107;-68
2022/03/12 09:42:12;;;;;;;7.30;4.88;;;;;;;;;;5038211;28;20114;-69
2022/03/12 09:44:38;;;;;;;15.23;5.55;;;;;;;;;;5037633;28;20087;-66
2022/03/12 09:47:04;;;;;;;9.68;5.93;;;;;;;;;;5044805;28;20033;-68
2022/03/12 09:49:33;;;;;;;11.75;6.72;;;;;;;;;;5039883;28;20034;-68
2022/03/12 09:52:00;;;;;;;12.48;5.63;;;;;;;;;;5036204;28;20115;-67
2022/03/12 09:54:28;;;;;;;11.60;5.50;;;;;;;;;;5044268;28;20044;-66
2022/03/12 09:56:54;;;;;;;16.67;6.05;;;;;;;;;;5032863;28;20045;-66
2022/03/12 09:59:20;;;;;;;12.07;6.05;;;;;;;;;;5039193;28;20029;-67
2022/03/12 10:01:46;;;;;;;11.45;5.85;;;;;;;;;;5033800;28;20052;-68
2022/03/12 10:04:12;;;;;;;13.55;6.05;;;;;;;;;;5040886;28;20537;-66
2022/03/12 10:06:40;;;;;;;9.75;5.90;;;;;;;;;;5039749;28;20126;-67
2022/03/12 10:09:06;;;;;;;12.45;5.57;;;;;;;;;;5040204;28;20112;-67
2022/03/12 10:11:34;;;;;;;12.05;5.70;;;;;;;;;;5039284;28;20040;-69
2022/03/12 10:13:59;;;;;;;9.02;5.68;;;;;;;;;;5033253;28;20033;-68
2022/03/12 10:16:29;;;;;;;9.20;5.30;;;;;;;;;;5042831;28;20033;-69
2022/03/12 10:18:56;;;;;;;13.52;5.60;;;;;;;;;;5039809;28;20111;-68
2022/03/12 10:21:23;;;;;;;7.55;5.38;;;;;;;;;;5034601;28;20026;-67
2022/03/12 10:23:49;;;;;;;9.65;5.25;;;;;;;;;;5037235;28;20386;-68
2022/03/12 10:26:15;;;;;;;7.53;5.20;;;;;;;;;;5036631;28;20058;-67
2022/03/12 10:28:41;;;;;;;10.27;5.20;;;;;;;;;;5038386;28;20037;-67
2022/03/12 10:31:08;;;;;;;9.70;5.22;;;;;;;;;;5038039;28;20037;-67
2022/03/12 10:33:36;;;;;;;9.52;4.80;;;;;;;;;;5042928;28;20025;-68
2022/03/12 10:36:10;;;;;;;8.15;5.22;;;;;;;;;;5038763;28;20055;-68
2022/03/12 10:38:46;;;;;;;8.25;5.00;;;;;;;;;;5044111;28;20029;-70
2022/03/12 10:41:12;;;;;;;9.82;4.78;;;;;;;;;;5042019;28;20032;-66
2022/03/12 10:43:49;;;;;;;11.32;5.00;;;;;;;;;;5037054;28;20175;-69
2022/03/12 10:46:21;;;;;;;9.82;4.43;;;;;;;;;;5036990;28;20031;-67
2022/03/12 10:48:56;;;;;;;12.05;5.60;;;;;;;;;;5039039;28;20026;-67
2022/03/12 10:51:39;;;;;;;5.93;4.63;;;;;;;;;;5036938;28;20043;-68
2022/03/12 10:54:15;;;;;;;9.63;5.15;;;;;;;;;;5035868;28;20041;-67
2022/03/12 10:56:52;;;;;;;5.85;4.88;;;;;;;;;;5037272;28;20025;-68
2022/03/12 10:59:21;;;;;;;18.60;4.63;;;;;;;;;;5040572;28;20047;-68
2022/03/12 11:01:51;;;;;;;7.53;4.30;;;;;;;;;;5036576;28;20076;-67
2022/03/12 11:04:26;;;;;;;6.80;5.18;;;;;;;;;;5035162;28;20036;-67
2022/03/12 11:06:55;;;;;;;8.10;4.57;;;;;;;;;;5040308;28;20035;-67
2022/03/12 11:09:36;;;;;;;5.70;4.40;;;;;;;;;;5040119;28;20442;-67
2022/03/12 11:12:04;;;;;;;9.52;5.10;;;;;;;;;;5036903;28;20044;-68
2022/03/12 11:14:31;;;;;;;13.73;4.07;;;;;;;;;;5045731;28;20112;-67
2022/03/12 11:16:58;;;;;;;9.57;5.10;;;;;;;;;;5042357;28;20083;-68
2022/03/12 11:19:41;;;;;;;8.88;4.80;;;;;;;;;;5034889;28;20389;-69
2022/03/12 11:22:12;;;;;;;24.02;5.00;;;;;;;;;;5034620;28;20442;-68
2022/03/12 11:24:50;;;;;;;11.50;5.00;;;;;;;;;;5037831;28;20166;-67
2022/03/12 11:27:36;;;;;;;10.43;4.68;;;;;;;;;;5034504;28;20037;-68
2022/03/12 11:30:08;;;;;;;10.15;4.80;;;;;;;;;;5037014;28;20044;-69
2022/03/12 11:32:44;;;;;;;;;;;;;;;;;;5035228;28;20032;-67
2022/03/12 11:35:13;;;;;;;15.10;5.38;;;;;;;;;;5036460;28;19928;-68
2022/03/12 11:37:41;;;;;;;8.65;5.40;;;;;;;;;;5034261;28;20033;-67
2022/03/12 11:40:18;;;;;;;6.43;4.85;;;;;;;;;;5035373;28;20127;-68
2022/03/12 11:42:44;;;;;;;12.32;5.38;;;;;;;;;;5033475;28;20368;-68
2022/03/12 11:45:15;;;;;;;6.95;4.80;;;;;;;;;;5034525;28;20030;-68
2022/03/12 11:47:44;;;;;;;12.88;4.88;;;;;;;;;;5041028;28;20024;-67
2022/03/12 11:50:23;;;;;;;9.77;4.28;;;;;;;;;;5034351;28;20416;-69
2022/03/12 11:52:49;;;;;;;7.30;4.18;;;;;;;;;;5030787;28;20029;-67
2022/03/12 11:55:18;;;;;;;7.43;4.15;;;;;;;;;;5037567;28;20034;-68
2022/03/12 11:57:48;;;;;;;7.13;3.95;;;;;;;;;;5034676;28;20431;-67
2022/03/12 12:00:24;;;;;;;5.85;4.00;;;;;;;;;;5036316;28;20052;-66
2022/03/12 12:02:52;;;;;;;7.32;4.22;;;;;;;;;;5033593;28;20033;-67
2022/03/12 12:05:19;;;;;;;8.32;4.68;;;;;;;;;;5036317;28;20378;-66
2022/03/12 12:07:47;;;;;;;11.13;4.82;;;;;;;;;;5037048;28;20041;-67
2022/03/12 12:10:15;;;;;;;6.35;3.80;;;;;;;;;;5040443;28;20029;-67
2022/03/12 12:12:43;;;;;;;11.15;4.43;;;;;;;;;;5029713;28;20042;-67
2022/03/12 12:15:17;;;;;;;7.93;4.38;;;;;;;;;;5033701;28;20094;-67
2022/03/12 12:17:43;;;;;;;7.10;4.50;;;;;;;;;;5033519;28;20037;-66
2022/03/12 12:20:10;;;;;;;10.35;4.47;;;;;;;;;;5030877;28;20029;-66
2022/03/12 12:22:37;;;;;;;6.38;4.53;;;;;;;;;;5034551;28;20089;-66
2022/03/12 12:25:04;;;;;;;8.90;4.80;;;;;;;;;;5037208;28;20060;-66
2022/03/12 12:27:52;;;;;;;6.78;4.68;;;;;;;;;;5038155;28;20029;-67
2022/03/12 12:30:42;;;;;;;6.90;4.30;;;;;;;;;;5037513;28;20389;-67
2022/03/12 12:33:23;;;;;;;5.20;4.60;;;;;;;;;;5037492;28;20060;-66
2022/03/12 12:35:51;;;;;;;6.53;4.38;;;;;;;;;;5035311;28;20021;-67
2022/03/12 12:38:21;;;;;;;7.30;4.25;;;;;;;;;;5033509;28;20482;-66
2022/03/12 12:40:54;;;;;;;7.97;4.38;;;;;;;;;;5042288;28;20398;-66
2022/03/12 12:43:23;;;;;;;6.93;4.30;;;;;;;;;;5040800;28;20031;-67
2022/03/12 12:45:51;;;;;;;14.50;4.85;;;;;;;;;;5036044;28;20029;-70
2022/03/12 12:49:43;;;;;;;9.38;4.63;;;;;;;;;;5047198;28;20551;-66
2022/03/12 12:52:10;;;;;;;;;;;;;;;;;;5040822;28;20041;-66
2022/03/12 12:54:57;;;;;;;7.15;4.32;;;;;;;;;;5043315;28;19917;-65
2022/03/12 12:57:47;;;;;;;10.63;5.15;;;;;;;;;;5035150;28;20165;-66
2022/03/12 13:00:19;;;;;;;7.55;5.00;;;;;;;;;;5038785;28;20036;-66
2022/03/12 13:02:45;;;;;;;8.90;5.25;;;;;;;;;;5038518;28;20087;-65
2022/03/12 13:05:14;;;;;;;14.93;4.70;;;;;;;;;;5038648;28;20340;-66
2022/03/12 13:08:03;;;;;;;8.80;5.38;;;;;;;;;;5042792;28;20083;-66
2022/03/12 13:10:29;;;;;;;20.33;5.80;;;;;;;;;;5040181;28;20036;-66
2022/03/12 13:13:21;;;;;;;13.93;5.18;;;;;;;;;;5037196;28;20068;-66
2022/03/12 13:15:50;;;;;;;6.20;4.85;;;;;;;;;;5031855;28;20076;-66
2022/03/12 13:18:19;;;;;;;5.22;4.70;;;;;;;;;;5039978;28;20041;-67
2022/03/12 13:20:49;;;;;;;10.55;5.07;;;;;;;;;;5043008;28;20112;-67
2022/03/12 13:23:21;;;;;;;7.47;4.75;;;;;;;;;;5036446;28;20025;-66
2022/03/12 13:25:48;;;;;;;6.13;4.45;;;;;;;;;;5041150;28;20021;-68
2022/03/12 13:28:41;;;;;;;7.57;4.78;;;;;;;;;;5038434;28;20068;-68
2022/03/12 13:31:29;;;;;;;10.77;5.65;;;;;;;;;;5042919;28;20033;-68
2022/03/12 13:34:06;;;;;;;8.50;4.50;;;;;;;;;;5034103;28;20057;-68
2022/03/12 13:36:35;;;;;;;12.55;4.70;;;;;;;;;;5036914;28;20078;-68
2022/03/12 13:39:02;;;;;;;13.25;4.70;;;;;;;;;;5033313;28;20033;-69
2022/03/12 13:41:28;;;;;;;11.13;4.90;;;;;;;;;;5037803;28;20038;-67
2022/03/12 13:43:56;;;;;;;12.07;5.47;;;;;;;;;;5034719;28;20056;-65
2022/03/12 13:46:24;;;;;;;10.43;4.75;;;;;;;;;;5034488;28;20036;-66
2022/03/12 13:48:59;;;;;;;10.93;4.70;;;;;;;;;;5034136;28;20124;-67
2022/03/12 13:51:25;;;;;;;8.45;4.82;;;;;;;;;;5041704;28;20029;-68
2022/03/12 13:53:58;;;;;;;16.25;5.55;;;;;;;;;;5037881;28;20057;-68
2022/03/12 13:56:27;;;;;;;19.73;5.07;;;;;;;;;;5034052;28;20026;-68
2022/03/12 13:58:54;;;;;;;15.77;6.32;;;;;;;;;;5031950;28;20037;-68
2022/03/12 14:01:31;;;;;;;7.45;5.03;;;;;;;;;;5028200;28;20057;-67
2022/03/12 14:03:58;;;;;;;21.58;6.40;;;;;;;;;;5021722;28;20033;-67
2022/03/12 14:06:34;;;;;;;10.52;5.53;;;;;;;;;;5023752;28;20068;-67
2022/03/12 14:09:04;;;;;;;10.25;5.68;;;;;;;;;;5022167;28;20517;-67
2022/03/12 14:11:36;;;;;;;13.38;5.85;;;;;;;;;;5025305;28;20080;-67
2022/03/12 14:14:03;;;;;;;;;;;;;;;;;;5024107;28;20437;-67
2022/03/12 14:16:29;;;;;;;13.48;6.20;;;;;;;;;;5022367;28;19951;-67
2022/03/12 14:19:00;;;;;;;14.02;5.72;;;;;;;;;;5019437;28;20057;-66
2022/03/12 14:21:40;;;;;;;11.70;6.13;;;;;;;;;;5020860;28;20043;-67
2022/03/12 14:24:16;;;;;;;6.50;5.03;;;;;;;;;;5021163;28;20068;-68
2022/03/12 14:27:07;;;;;;;11.23;5.88;;;;;;;;;;5020335;28;20036;-67
2022/03/12 14:29:32;;;;;;;13.02;7.07;;;;;;;;;;5018469;28;20398;-67
2022/03/12 14:32:11;;;;;;;11.30;5.90;;;;;;;;;;5023289;28;20022;-67
2022/03/12 14:34:40;;;;;;;7.93;5.90;;;;;;;;;;5021036;28;20017;-68
2022/03/12 14:37:08;;;;;;;11.88;5.53;;;;;;;;;;5029961;28;20028;-67
2022/03/12 14:39:35;;;;;;;8.43;5.47;;;;;;;;;;5021837;28;20041;-68
2022/03/12 14:42:04;;;;;;;9.63;5.28;;;;;;;;;;5024575;28;20489;-67
2022/03/12 14:44:34;;;;;;;7.13;4.95;;;;;;;;;;5024405;28;20030;-67
2022/03/12 14:47:00;;;;;;;9.20;4.90;;;;;;;;;;5015689;28;20087;-68
2022/03/12 14:49:32;;;;;;;10.30;5.50;;;;;;;;;;5024077;28;20061;-68